sensor_id;sensor_type;location;lat;lon;timestamp;temperature;humidity
70151;DHT22;57517;43.562;19.540;2022-11-15T00:02:10;256.00;2252.80
70151;DHT22;57517;43.562;19.540;2022-11-15T00:04:36;231.30;2252.80
70151;DHT22;57517;43.562;19.540;2022-11-15T00:07:02;231.30;2252.80
70151;DHT22;57517;43.562;19.540;2022-11-15T00:09:28;256.00;2252.80
70151;DHT22;57517;43.562;19.540;2022-11-15T00:11:53;256.10;2252.80
70151;DHT22;57517;43.562;19.540;2022-11-15T00:14:19;256.30;2252.80
70151;DHT22;57517;43.562;19.540;2022-11-15T00:16:45;256.40;2252.80
70151;DHT22;57517;43.562;19.540;2022-11-15T00:19:11;256.40;2252.80
70151;DHT22;57517;43.562;19.540;2022-11-15T00:21:37;256.40;2252.80
70151;DHT22;57517;43.562;19.540;2022-11-15T00:24:03;256.40;2252.80
70151;DHT22;57517;43.562;19.540;2022-11-15T00:26:28;256.40;2252.80
70151;DHT22;57517;43.562;19.540;2022-11-15T00:28:54;256.40;2252.80
70151;DHT22;57517;43.562;19.540;2022-11-15T00:31:20;256.40;2252.80
70151;DHT22;57517;43.562;19.540;2022-11-15T00:33:46;256.50;2252.80
70151;DHT22;57517;43.562;19.540;2022-11-15T00:36:12;256.40;2252.80
70151;DHT22;57517;43.562;19.540;2022-11-15T00:38:39;256.40;2252.80
70151;DHT22;57517;43.562;19.540;2022-11-15T00:41:06;256.30;2252.80
70151;DHT22;57517;43.562;19.540;2022-11-15T00:43:32;256.30;2252.80
70151;DHT22;57517;43.562;19.540;2022-11-15T00:45:59;256.20;2252.80
70151;DHT22;57517;43.562;19.540;2022-11-15T00:48:25;256.20;2252.80
70151;DHT22;57517;43.562;19.540;2022-11-15T00:50:51;256.30;2252.80
70151;DHT22;57517;43.562;19.540;2022-11-15T00:53:17;256.20;2252.80
70151;DHT22;57517;43.562;19.540;2022-11-15T00:55:43;256.30;2252.80
70151;DHT22;57517;43.562;19.540;2022-11-15T00:58:09;256.40;2252.80
70151;DHT22;57517;43.562;19.540;2022-11-15T01:00:34;256.20;2252.80
70151;DHT22;57517;43.562;19.540;2022-11-15T01:03:01;256.20;2252.80
70151;DHT22;57517;43.562;19.540;2022-11-15T01:05:27;256.10;2252.80
70151;DHT22;57517;43.562;19.540;2022-11-15T01:07:57;256.30;2252.80
70151;DHT22;57517;43.562;19.540;2022-11-15T01:10:23;256.20;2252.80
70151;DHT22;57517;43.562;19.540;2022-11-15T01:12:51;256.20;2252.80
70151;DHT22;57517;43.562;19.540;2022-11-15T01:15:17;256.10;2252.80
70151;DHT22;57517;43.562;19.540;2022-11-15T01:17:42;231.10;2252.80
70151;DHT22;57517;43.562;19.540;2022-11-15T01:20:09;231.10;2252.80
70151;DHT22;57517;43.562;19.540;2022-11-15T01:22:35;231.00;2252.80
70151;DHT22;57517;43.562;19.540;2022-11-15T01:25:00;231.00;2252.80
70151;DHT22;57517;43.562;19.540;2022-11-15T01:27:26;230.90;2252.80
70151;DHT22;57517;43.562;19.540;2022-11-15T01:29:52;230.90;2252.80
70151;DHT22;57517;43.562;19.540;2022-11-15T01:32:18;230.90;2252.80
70151;DHT22;57517;43.562;19.540;2022-11-15T01:34:43;230.90;2252.80
70151;DHT22;57517;43.562;19.540;2022-11-15T01:37:09;230.80;2252.80
70151;DHT22;57517;43.562;19.540;2022-11-15T01:39:35;231.00;2252.80
70151;DHT22;57517;43.562;19.540;2022-11-15T01:42:01;231.10;2252.80
70151;DHT22;57517;43.562;19.540;2022-11-15T01:44:45;231.20;2252.80
70151;DHT22;57517;43.562;19.540;2022-11-15T01:47:16;256.00;2252.80
70151;DHT22;57517;43.562;19.540;2022-11-15T01:50:20;256.20;2252.80
70151;DHT22;57517;43.562;19.540;2022-11-15T01:52:47;256.30;2252.80
70151;DHT22;57517;43.562;19.540;2022-11-15T01:55:21;256.40;2252.80
70151;DHT22;57517;43.562;19.540;2022-11-15T01:57:52;256.50;2252.80
70151;DHT22;57517;43.562;19.540;2022-11-15T02:00:19;256.50;2252.80
70151;DHT22;57517;43.562;19.540;2022-11-15T02:02:45;256.40;2252.80
70151;DHT22;57517;43.562;19.540;2022-11-15T02:05:10;256.50;2252.80
70151;DHT22;57517;43.562;19.540;2022-11-15T02:07:37;256.50;2252.80
70151;DHT22;57517;43.562;19.540;2022-11-15T02:10:12;256.50;2252.80
70151;DHT22;57517;43.562;19.540;2022-11-15T02:12:39;256.50;2252.80
70151;DHT22;57517;43.562;19.540;2022-11-15T02:15:07;256.40;2252.80
70151;DHT22;57517;43.562;19.540;2022-11-15T02:31:30;256.30;2252.80
70151;DHT22;57517;43.562;19.540;2022-11-15T02:37:09;256.30;2252.80
70151;DHT22;57517;43.562;19.540;2022-11-15T02:39:46;256.50;2252.80
70151;DHT22;57517;43.562;19.540;2022-11-15T02:42:33;256.60;2252.80
70151;DHT22;57517;43.562;19.540;2022-11-15T02:45:30;256.70;2252.80
70151;DHT22;57517;43.562;19.540;2022-11-15T02:47:58;256.80;2252.80
70151;DHT22;57517;43.562;19.540;2022-11-15T02:50:27;256.70;2252.80
70151;DHT22;57517;43.562;19.540;2022-11-15T02:52:54;256.80;2252.80
70151;DHT22;57517;43.562;19.540;2022-11-15T02:55:31;256.80;2252.80
70151;DHT22;57517;43.562;19.540;2022-11-15T03:01:14;256.70;2252.80
70151;DHT22;57517;43.562;19.540;2022-11-15T03:11:34;256.60;2252.80
70151;DHT22;57517;43.562;19.540;2022-11-15T03:14:21;256.60;2252.80
70151;DHT22;57517;43.562;19.540;2022-11-15T03:19:47;256.50;2252.80
70151;DHT22;57517;43.562;19.540;2022-11-15T03:22:22;256.40;2252.80
70151;DHT22;57517;43.562;19.540;2022-11-15T03:24:53;256.30;2252.80
70151;DHT22;57517;43.562;19.540;2022-11-15T03:27:23;256.30;2252.80
70151;DHT22;57517;43.562;19.540;2022-11-15T03:29:56;256.40;2252.80
70151;DHT22;57517;43.562;19.540;2022-11-15T03:32:27;256.60;2252.80
70151;DHT22;57517;43.562;19.540;2022-11-15T03:37:39;256.70;2252.80
70151;DHT22;57517;43.562;19.540;2022-11-15T03:40:07;256.70;2252.80
70151;DHT22;57517;43.562;19.540;2022-11-15T03:43:05;256.70;2252.80
70151;DHT22;57517;43.562;19.540;2022-11-15T03:45:46;256.60;2252.80
70151;DHT22;57517;43.562;19.540;2022-11-15T03:48:16;256.70;2252.80
70151;DHT22;57517;43.562;19.540;2022-11-15T03:50:45;256.80;2252.80
70151;DHT22;57517;43.562;19.540;2022-11-15T03:53:12;256.90;2252.80
70151;DHT22;57517;43.562;19.540;2022-11-15T03:55:38;256.70;2252.80
70151;DHT22;57517;43.562;19.540;2022-11-15T03:58:04;256.80;2252.80
70151;DHT22;57517;43.562;19.540;2022-11-15T04:00:30;256.90;2252.80
70151;DHT22;57517;43.562;19.540;2022-11-15T04:02:55;256.70;2252.80
70151;DHT22;57517;43.562;19.540;2022-11-15T04:05:21;256.60;2252.80
70151;DHT22;57517;43.562;19.540;2022-11-15T04:07:47;256.60;2252.80
70151;DHT22;57517;43.562;19.540;2022-11-15T04:10:13;256.70;2252.80
70151;DHT22;57517;43.562;19.540;2022-11-15T04:12:42;256.80;2252.80
70151;DHT22;57517;43.562;19.540;2022-11-15T04:15:15;256.90;2252.80
70151;DHT22;57517;43.562;19.540;2022-11-15T04:23:00;256.90;2252.80
70151;DHT22;57517;43.562;19.540;2022-11-15T04:25:45;256.60;2252.80
70151;DHT22;57517;43.562;19.540;2022-11-15T04:28:11;256.60;2252.80
70151;DHT22;57517;43.562;19.540;2022-11-15T04:30:37;256.60;2252.80
70151;DHT22;57517;43.562;19.540;2022-11-15T04:33:03;256.70;2252.80
70151;DHT22;57517;43.562;19.540;2022-11-15T04:35:30;256.70;2252.80
70151;DHT22;57517;43.562;19.540;2022-11-15T04:37:56;256.50;2252.80
70151;DHT22;57517;43.562;19.540;2022-11-15T04:40:22;256.30;2252.80
70151;DHT22;57517;43.562;19.540;2022-11-15T04:42:48;256.00;2252.80
70151;DHT22;57517;43.562;19.540;2022-11-15T04:45:14;256.10;2252.80
70151;DHT22;57517;43.562;19.540;2022-11-15T04:47:42;256.30;2252.80
70151;DHT22;57517;43.562;19.540;2022-11-15T04:50:08;256.30;2252.80
70151;DHT22;57517;43.562;19.540;2022-11-15T04:52:38;256.30;2252.80
70151;DHT22;57517;43.562;19.540;2022-11-15T04:55:04;256.20;2252.80
70151;DHT22;57517;43.562;19.540;2022-11-15T04:57:29;256.40;2252.80
70151;DHT22;57517;43.562;19.540;2022-11-15T04:59:55;256.40;2252.80
70151;DHT22;57517;43.562;19.540;2022-11-15T05:02:21;256.40;2252.80
70151;DHT22;57517;43.562;19.540;2022-11-15T05:04:47;256.40;2252.80
70151;DHT22;57517;43.562;19.540;2022-11-15T05:07:12;256.50;2252.80
70151;DHT22;57517;43.562;19.540;2022-11-15T05:09:38;256.50;2252.80
70151;DHT22;57517;43.562;19.540;2022-11-15T05:12:04;256.50;2252.80
70151;DHT22;57517;43.562;19.540;2022-11-15T05:14:30;256.40;2252.80
70151;DHT22;57517;43.562;19.540;2022-11-15T05:16:56;256.30;2252.80
70151;DHT22;57517;43.562;19.540;2022-11-15T05:19:21;256.40;2252.80
70151;DHT22;57517;43.562;19.540;2022-11-15T05:21:47;256.00;2252.80
70151;DHT22;57517;43.562;19.540;2022-11-15T05:24:13;231.30;2252.80
70151;DHT22;57517;43.562;19.540;2022-11-15T05:26:39;231.20;2252.80
70151;DHT22;57517;43.562;19.540;2022-11-15T05:29:05;256.10;2252.80
70151;DHT22;57517;43.562;19.540;2022-11-15T05:31:30;256.10;2252.80
70151;DHT22;57517;43.562;19.540;2022-11-15T05:33:56;256.20;2252.80
70151;DHT22;57517;43.562;19.540;2022-11-15T05:36:38;256.20;2252.80
70151;DHT22;57517;43.562;19.540;2022-11-15T05:39:07;256.30;2252.80
70151;DHT22;57517;43.562;19.540;2022-11-15T05:41:37;256.20;2252.80
70151;DHT22;57517;43.562;19.540;2022-11-15T05:44:08;256.20;2252.80
70151;DHT22;57517;43.562;19.540;2022-11-15T05:46:35;256.00;2252.80
70151;DHT22;57517;43.562;19.540;2022-11-15T05:49:05;256.20;2252.80
70151;DHT22;57517;43.562;19.540;2022-11-15T05:51:31;256.40;2252.80
70151;DHT22;57517;43.562;19.540;2022-11-15T05:53:58;256.50;2252.80
70151;DHT22;57517;43.562;19.540;2022-11-15T05:56:25;256.40;2252.80
70151;DHT22;57517;43.562;19.540;2022-11-15T05:58:53;256.20;2252.80
70151;DHT22;57517;43.562;19.540;2022-11-15T06:01:19;256.20;2252.80
70151;DHT22;57517;43.562;19.540;2022-11-15T06:03:45;256.30;2252.80
70151;DHT22;57517;43.562;19.540;2022-11-15T06:06:11;256.40;2252.80
70151;DHT22;57517;43.562;19.540;2022-11-15T06:08:36;256.50;2252.80
70151;DHT22;57517;43.562;19.540;2022-11-15T06:11:06;256.40;2252.80
70151;DHT22;57517;43.562;19.540;2022-11-15T06:13:32;256.50;2252.80
70151;DHT22;57517;43.562;19.540;2022-11-15T06:15:59;256.50;2252.80
70151;DHT22;57517;43.562;19.540;2022-11-15T06:18:25;256.50;2252.80
70151;DHT22;57517;43.562;19.540;2022-11-15T06:20:51;256.50;2252.80
70151;DHT22;57517;43.562;19.540;2022-11-15T06:23:17;256.60;2252.80
70151;DHT22;57517;43.562;19.540;2022-11-15T06:25:42;256.60;2252.80
70151;DHT22;57517;43.562;19.540;2022-11-15T06:28:08;256.70;2252.80
70151;DHT22;57517;43.562;19.540;2022-11-15T06:30:34;256.60;2252.80
70151;DHT22;57517;43.562;19.540;2022-11-15T06:33:01;256.40;2252.80
70151;DHT22;57517;43.562;19.540;2022-11-15T06:35:28;256.10;2252.80
70151;DHT22;57517;43.562;19.540;2022-11-15T06:37:54;256.20;2252.80
70151;DHT22;57517;43.562;19.540;2022-11-15T06:40:20;256.30;2252.80
70151;DHT22;57517;43.562;19.540;2022-11-15T06:42:45;256.40;2252.80
70151;DHT22;57517;43.562;19.540;2022-11-15T06:45:11;256.60;2252.80
70151;DHT22;57517;43.562;19.540;2022-11-15T06:47:47;256.70;2252.80
70151;DHT22;57517;43.562;19.540;2022-11-15T06:50:13;256.80;2252.80
70151;DHT22;57517;43.562;19.540;2022-11-15T06:52:39;256.70;2252.80
70151;DHT22;57517;43.562;19.540;2022-11-15T06:55:05;256.70;2252.80
70151;DHT22;57517;43.562;19.540;2022-11-15T06:57:31;256.70;2252.80
70151;DHT22;57517;43.562;19.540;2022-11-15T06:59:57;256.50;2252.80
70151;DHT22;57517;43.562;19.540;2022-11-15T07:02:23;256.60;2252.80
70151;DHT22;57517;43.562;19.540;2022-11-15T07:04:49;256.50;2252.80
70151;DHT22;57517;43.562;19.540;2022-11-15T07:07:14;256.70;2252.80
70151;DHT22;57517;43.562;19.540;2022-11-15T07:09:40;256.80;2252.80
70151;DHT22;57517;43.562;19.540;2022-11-15T07:12:06;281.60;2278.40
70151;DHT22;57517;43.562;19.540;2022-11-15T07:14:32;281.70;2278.40
70151;DHT22;57517;43.562;19.540;2022-11-15T07:16:58;281.70;2278.40
70151;DHT22;57517;43.562;19.540;2022-11-15T07:19:23;281.80;2278.40
70151;DHT22;57517;43.562;19.540;2022-11-15T07:21:49;282.00;2278.40
70151;DHT22;57517;43.562;19.540;2022-11-15T07:24:15;282.00;2278.40
70151;DHT22;57517;43.562;19.540;2022-11-15T07:26:41;282.10;2278.40
70151;DHT22;57517;43.562;19.540;2022-11-15T07:29:06;282.20;2278.40
70151;DHT22;57517;43.562;19.540;2022-11-15T07:31:32;282.20;2278.40
70151;DHT22;57517;43.562;19.540;2022-11-15T07:33:58;282.20;2278.40
70151;DHT22;57517;43.562;19.540;2022-11-15T07:36:24;282.20;2278.40
70151;DHT22;57517;43.562;19.540;2022-11-15T07:38:49;282.20;2278.40
70151;DHT22;57517;43.562;19.540;2022-11-15T07:41:15;282.30;2278.40
70151;DHT22;57517;43.562;19.540;2022-11-15T07:43:41;282.30;2278.40
70151;DHT22;57517;43.562;19.540;2022-11-15T07:46:08;282.30;2278.40
70151;DHT22;57517;43.562;19.540;2022-11-15T07:48:35;282.50;2278.40
70151;DHT22;57517;43.562;19.540;2022-11-15T07:51:02;307.30;2304.00
70151;DHT22;57517;43.562;19.540;2022-11-15T07:53:28;307.30;2304.00
70151;DHT22;57517;43.562;19.540;2022-11-15T07:55:54;307.50;2304.00
70151;DHT22;57517;43.562;19.540;2022-11-15T07:58:19;307.80;2304.00
70151;DHT22;57517;43.562;19.540;2022-11-15T08:00:45;308.00;2304.00
70151;DHT22;57517;43.562;19.540;2022-11-15T08:03:13;308.00;2304.00
70151;DHT22;57517;43.562;19.540;2022-11-15T08:05:40;308.00;2304.00
70151;DHT22;57517;43.562;19.540;2022-11-15T08:08:07;307.90;2304.00
70151;DHT22;57517;43.562;19.540;2022-11-15T08:10:34;307.90;2304.00
70151;DHT22;57517;43.562;19.540;2022-11-15T08:13:07;307.90;2304.00
70151;DHT22;57517;43.562;19.540;2022-11-15T08:15:34;307.90;2304.00
70151;DHT22;57517;43.562;19.540;2022-11-15T08:18:04;307.80;2304.00
70151;DHT22;57517;43.562;19.540;2022-11-15T08:20:31;307.60;2304.00
70151;DHT22;57517;43.562;19.540;2022-11-15T08:22:57;307.50;2304.00
70151;DHT22;57517;43.562;19.540;2022-11-15T08:25:24;307.70;2304.00
70151;DHT22;57517;43.562;19.540;2022-11-15T08:27:54;307.80;2304.00
70151;DHT22;57517;43.562;19.540;2022-11-15T08:30:21;308.00;2304.00
70151;DHT22;57517;43.562;19.540;2022-11-15T08:32:48;308.00;2304.00
70151;DHT22;57517;43.562;19.540;2022-11-15T08:35:14;332.90;2329.60
70151;DHT22;57517;43.562;19.540;2022-11-15T08:37:39;333.30;2329.60
70151;DHT22;57517;43.562;19.540;2022-11-15T08:40:06;333.40;2329.60
70151;DHT22;57517;43.562;19.540;2022-11-15T08:42:32;358.40;2329.60
70151;DHT22;57517;43.562;19.540;2022-11-15T08:44:57;358.50;2329.60
70151;DHT22;57517;43.562;19.540;2022-11-15T08:47:23;333.70;2329.60
70151;DHT22;57517;43.562;19.540;2022-11-15T08:49:49;333.50;2329.60
70151;DHT22;57517;43.562;19.540;2022-11-15T08:52:15;333.30;2329.60
70151;DHT22;57517;43.562;19.540;2022-11-15T08:54:41;333.30;2329.60
70151;DHT22;57517;43.562;19.540;2022-11-15T08:57:07;333.30;2329.60
70151;DHT22;57517;43.562;19.540;2022-11-15T08:59:35;333.40;2329.60
70151;DHT22;57517;43.562;19.540;2022-11-15T09:02:01;333.60;2329.60
70151;DHT22;57517;43.562;19.540;2022-11-15T09:04:26;333.40;2329.60
70151;DHT22;57517;43.562;19.540;2022-11-15T09:06:52;333.30;2329.60
70151;DHT22;57517;43.562;19.540;2022-11-15T09:09:18;333.50;2329.60
70151;DHT22;57517;43.562;19.540;2022-11-15T09:11:44;333.70;2329.60
70151;DHT22;57517;43.562;19.540;2022-11-15T09:14:13;358.60;2329.60
70151;DHT22;57517;43.562;19.540;2022-11-15T09:16:39;358.80;2329.60
70151;DHT22;57517;43.562;19.540;2022-11-15T09:19:04;359.00;2329.60
70151;DHT22;57517;43.562;19.540;2022-11-15T09:21:30;359.30;2329.60
70151;DHT22;57517;43.562;19.540;2022-11-15T09:23:56;384.30;2329.60
70151;DHT22;57517;43.562;19.540;2022-11-15T09:26:22;384.60;2329.60
70151;DHT22;57517;43.562;19.540;2022-11-15T09:28:48;384.90;2329.60
70151;DHT22;57517;43.562;19.540;2022-11-15T09:31:13;435.20;2355.20
70151;DHT22;57517;43.562;19.540;2022-11-15T09:33:39;435.20;2304.00
70151;DHT22;57517;43.562;19.540;2022-11-15T09:36:07;435.20;2329.60
70151;DHT22;57517;43.562;19.540;2022-11-15T09:38:34;461.00;2201.60
70151;DHT22;57517;43.562;19.540;2022-11-15T09:47:27;486.80;2022.40
70151;DHT22;57517;43.562;19.540;2022-11-15T09:49:59;486.90;1971.20
70151;DHT22;57517;43.562;19.540;2022-11-15T09:52:27;486.80;1996.80
70151;DHT22;57517;43.562;19.540;2022-11-15T09:54:53;486.70;1996.80
70151;DHT22;57517;43.562;19.540;2022-11-15T09:57:38;486.40;2022.40
70151;DHT22;57517;43.562;19.540;2022-11-15T10:00:20;461.40;2099.20
70151;DHT22;57517;43.562;19.540;2022-11-15T10:03:04;461.20;2150.40
70151;DHT22;57517;43.562;19.540;2022-11-15T10:05:42;435.90;2227.20
70151;DHT22;57517;43.562;19.540;2022-11-15T10:08:13;436.00;2227.20
70151;DHT22;57517;43.562;19.540;2022-11-15T10:10:55;435.70;2278.40
70151;DHT22;57517;43.562;19.540;2022-11-15T10:13:26;435.40;2304.00
70151;DHT22;57517;43.562;19.540;2022-11-15T10:19:04;435.30;2329.60
70151;DHT22;57517;43.562;19.540;2022-11-15T10:22:04;410.50;2355.20
70151;DHT22;57517;43.562;19.540;2022-11-15T10:24:39;460.80;2252.80
70151;DHT22;57517;43.562;19.540;2022-11-15T10:27:19;435.70;2278.40
70151;DHT22;57517;43.562;19.540;2022-11-15T10:29:48;435.50;2278.40
70151;DHT22;57517;43.562;19.540;2022-11-15T10:32:16;435.30;2304.00
70151;DHT22;57517;43.562;19.540;2022-11-15T10:34:42;512.00;2022.40
70151;DHT22;57517;43.562;19.540;2022-11-15T10:37:08;512.50;1920.00
70151;DHT22;57517;43.562;19.540;2022-11-15T10:39:34;537.80;1817.60
70151;DHT22;57517;43.562;19.540;2022-11-15T10:42:38;512.00;1868.80
70151;DHT22;57517;43.562;19.540;2022-11-15T10:45:29;486.40;2022.40
70151;DHT22;57517;43.562;19.540;2022-11-15T10:50:46;460.90;2176.00
70151;DHT22;57517;43.562;19.540;2022-11-15T10:53:36;436.00;2201.60
70151;DHT22;57517;43.562;19.540;2022-11-15T10:56:07;435.40;2304.00
70151;DHT22;57517;43.562;19.540;2022-11-15T10:58:45;409.90;2355.20
70151;DHT22;57517;43.562;19.540;2022-11-15T11:01:18;409.60;2355.20
70151;DHT22;57517;43.562;19.540;2022-11-15T11:04:06;384.80;2329.60
70151;DHT22;57517;43.562;19.540;2022-11-15T11:06:53;384.80;2329.60
70151;DHT22;57517;43.562;19.540;2022-11-15T11:11:54;384.10;2329.60
70151;DHT22;57517;43.562;19.540;2022-11-15T11:14:21;384.00;2329.60
70151;DHT22;57517;43.562;19.540;2022-11-15T11:16:55;359.30;2329.60
70151;DHT22;57517;43.562;19.540;2022-11-15T11:19:52;359.30;2329.60
70151;DHT22;57517;43.562;19.540;2022-11-15T11:31:52;359.20;2329.60
70151;DHT22;57517;43.562;19.540;2022-11-15T11:45:05;358.60;2329.60
70151;DHT22;57517;43.562;19.540;2022-11-15T11:47:40;358.70;2329.60
70151;DHT22;57517;43.562;19.540;2022-11-15T11:50:35;358.80;2329.60
70151;DHT22;57517;43.562;19.540;2022-11-15T11:53:25;358.90;2329.60
70151;DHT22;57517;43.562;19.540;2022-11-15T11:55:53;359.20;2329.60
70151;DHT22;57517;43.562;19.540;2022-11-15T11:58:38;359.20;2329.60
70151;DHT22;57517;43.562;19.540;2022-11-15T12:04:01;359.30;2329.60
70151;DHT22;57517;43.562;19.540;2022-11-15T12:14:51;384.20;2329.60
70151;DHT22;57517;43.562;19.540;2022-11-15T12:17:23;384.20;2329.60
70151;DHT22;57517;43.562;19.540;2022-11-15T12:19:49;384.50;2329.60
70151;DHT22;57517;43.562;19.540;2022-11-15T12:22:32;384.60;2329.60
70151;DHT22;57517;43.562;19.540;2022-11-15T12:25:14;384.90;2329.60
70151;DHT22;57517;43.562;19.540;2022-11-15T12:27:46;409.70;2355.20
70151;DHT22;57517;43.562;19.540;2022-11-15T12:30:15;410.00;2355.20
70151;DHT22;57517;43.562;19.540;2022-11-15T12:36:00;409.80;2355.20
70151;DHT22;57517;43.562;19.540;2022-11-15T12:41:36;409.60;2355.20
70151;DHT22;57517;43.562;19.540;2022-11-15T12:44:03;409.70;2355.20
70151;DHT22;57517;43.562;19.540;2022-11-15T12:48:59;409.60;2355.20
70151;DHT22;57517;43.562;19.540;2022-11-15T12:59:59;384.80;2329.60
70151;DHT22;57517;43.562;19.540;2022-11-15T13:13:40;384.70;2329.60
70151;DHT22;57517;43.562;19.540;2022-11-15T13:15:56;384.70;2329.60
70151;DHT22;57517;43.562;19.540;2022-11-15T13:20:52;384.70;2329.60
70151;DHT22;57517;43.562;19.540;2022-11-15T13:23:18;384.80;2329.60
70151;DHT22;57517;43.562;19.540;2022-11-15T13:30:51;384.80;2329.60
70151;DHT22;57517;43.562;19.540;2022-11-15T13:33:33;384.80;2329.60
70151;DHT22;57517;43.562;19.540;2022-11-15T13:36:35;384.90;2329.60
70151;DHT22;57517;43.562;19.540;2022-11-15T13:39:04;384.80;2329.60
70151;DHT22;57517;43.562;19.540;2022-11-15T13:41:35;384.70;2329.60
70151;DHT22;57517;43.562;19.540;2022-11-15T13:44:02;384.80;2329.60
70151;DHT22;57517;43.562;19.540;2022-11-15T13:46:32;384.80;2329.60
70151;DHT22;57517;43.562;19.540;2022-11-15T13:49:01;384.70;2329.60
70151;DHT22;57517;43.562;19.540;2022-11-15T13:51:49;384.70;2329.60
70151;DHT22;57517;43.562;19.540;2022-11-15T13:56:52;359.30;2329.60
70151;DHT22;57517;43.562;19.540;2022-11-15T13:59:30;359.30;2329.60
70151;DHT22;57517;43.562;19.540;2022-11-15T14:02:02;359.30;2329.60
70151;DHT22;57517;43.562;19.540;2022-11-15T14:04:30;384.20;2329.60
70151;DHT22;57517;43.562;19.540;2022-11-15T14:06:59;384.20;2329.60
70151;DHT22;57517;43.562;19.540;2022-11-15T14:09:35;384.20;2329.60
70151;DHT22;57517;43.562;19.540;2022-11-15T14:12:20;384.30;2329.60
70151;DHT22;57517;43.562;19.540;2022-11-15T14:14:47;384.20;2329.60
70151;DHT22;57517;43.562;19.540;2022-11-15T14:19:56;384.30;2329.60
70151;DHT22;57517;43.562;19.540;2022-11-15T14:22:24;384.20;2329.60
70151;DHT22;57517;43.562;19.540;2022-11-15T14:27:39;384.10;2329.60
70151;DHT22;57517;43.562;19.540;2022-11-15T14:30:05;359.20;2329.60
70151;DHT22;57517;43.562;19.540;2022-11-15T14:32:58;359.10;2329.60
70151;DHT22;57517;43.562;19.540;2022-11-15T14:35:23;359.00;2329.60
70151;DHT22;57517;43.562;19.540;2022-11-15T14:37:50;359.00;2329.60
70151;DHT22;57517;43.562;19.540;2022-11-15T14:40:18;358.90;2329.60
70151;DHT22;57517;43.562;19.540;2022-11-15T14:42:45;358.80;2329.60
70151;DHT22;57517;43.562;19.540;2022-11-15T14:45:20;358.90;2329.60
70151;DHT22;57517;43.562;19.540;2022-11-15T14:47:46;359.10;2329.60
70151;DHT22;57517;43.562;19.540;2022-11-15T14:50:13;359.10;2329.60
70151;DHT22;57517;43.562;19.540;2022-11-15T14:52:39;359.10;2329.60
70151;DHT22;57517;43.562;19.540;2022-11-15T14:57:42;358.90;2329.60
70151;DHT22;57517;43.562;19.540;2022-11-15T15:00:08;358.80;2329.60
70151;DHT22;57517;43.562;19.540;2022-11-15T15:02:35;358.90;2329.60
70151;DHT22;57517;43.562;19.540;2022-11-15T15:05:07;358.90;2329.60
70151;DHT22;57517;43.562;19.540;2022-11-15T15:07:38;358.90;2329.60
70151;DHT22;57517;43.562;19.540;2022-11-15T15:10:04;358.80;2329.60
70151;DHT22;57517;43.562;19.540;2022-11-15T15:12:30;358.80;2329.60
70151;DHT22;57517;43.562;19.540;2022-11-15T15:14:56;358.90;2329.60
70151;DHT22;57517;43.562;19.540;2022-11-15T15:17:22;358.60;2329.60
70151;DHT22;57517;43.562;19.540;2022-11-15T15:19:47;358.50;2329.60
70151;DHT22;57517;43.562;19.540;2022-11-15T15:22:19;358.60;2329.60
70151;DHT22;57517;43.562;19.540;2022-11-15T15:24:47;358.60;2329.60
70151;DHT22;57517;43.562;19.540;2022-11-15T15:27:13;358.60;2329.60
70151;DHT22;57517;43.562;19.540;2022-11-15T15:29:39;358.60;2329.60
70151;DHT22;57517;43.562;19.540;2022-11-15T15:32:06;358.60;2329.60
70151;DHT22;57517;43.562;19.540;2022-11-15T15:34:32;358.40;2329.60
70151;DHT22;57517;43.562;19.540;2022-11-15T15:37:09;358.40;2329.60
70151;DHT22;57517;43.562;19.540;2022-11-15T15:39:34;358.40;2329.60
70151;DHT22;57517;43.562;19.540;2022-11-15T15:42:00;333.70;2329.60
70151;DHT22;57517;43.562;19.540;2022-11-15T15:44:26;333.50;2329.60
70151;DHT22;57517;43.562;19.540;2022-11-15T15:46:52;333.50;2329.60
70151;DHT22;57517;43.562;19.540;2022-11-15T15:49:18;333.50;2329.60
70151;DHT22;57517;43.562;19.540;2022-11-15T15:51:44;333.40;2329.60
70151;DHT22;57517;43.562;19.540;2022-11-15T15:54:09;333.40;2329.60
70151;DHT22;57517;43.562;19.540;2022-11-15T15:56:35;333.60;2329.60
70151;DHT22;57517;43.562;19.540;2022-11-15T15:59:01;333.70;2329.60
70151;DHT22;57517;43.562;19.540;2022-11-15T16:01:27;333.70;2329.60
70151;DHT22;57517;43.562;19.540;2022-11-15T16:03:53;333.50;2329.60
70151;DHT22;57517;43.562;19.540;2022-11-15T16:06:35;333.50;2329.60
70151;DHT22;57517;43.562;19.540;2022-11-15T16:09:02;333.60;2329.60
70151;DHT22;57517;43.562;19.540;2022-11-15T16:11:28;333.50;2329.60
70151;DHT22;57517;43.562;19.540;2022-11-15T16:13:54;333.30;2329.60
70151;DHT22;57517;43.562;19.540;2022-11-15T16:16:21;333.30;2329.60
70151;DHT22;57517;43.562;19.540;2022-11-15T16:18:47;333.20;2329.60
70151;DHT22;57517;43.562;19.540;2022-11-15T16:21:13;333.00;2329.60
70151;DHT22;57517;43.562;19.540;2022-11-15T16:23:39;332.90;2329.60
70151;DHT22;57517;43.562;19.540;2022-11-15T16:26:21;332.90;2329.60
70151;DHT22;57517;43.562;19.540;2022-11-15T16:28:47;333.00;2329.60
70151;DHT22;57517;43.562;19.540;2022-11-15T16:31:13;333.00;2329.60
70151;DHT22;57517;43.562;19.540;2022-11-15T16:33:40;333.00;2329.60
70151;DHT22;57517;43.562;19.540;2022-11-15T16:38:44;332.80;2329.60
70151;DHT22;57517;43.562;19.540;2022-11-15T16:41:09;332.80;2329.60
70151;DHT22;57517;43.562;19.540;2022-11-15T16:43:35;333.00;2329.60
70151;DHT22;57517;43.562;19.540;2022-11-15T16:46:12;333.10;2329.60
70151;DHT22;57517;43.562;19.540;2022-11-15T16:48:38;333.10;2329.60
70151;DHT22;57517;43.562;19.540;2022-11-15T16:51:04;333.00;2329.60
70151;DHT22;57517;43.562;19.540;2022-11-15T16:53:30;333.00;2329.60
70151;DHT22;57517;43.562;19.540;2022-11-15T16:55:56;332.90;2329.60
70151;DHT22;57517;43.562;19.540;2022-11-15T16:58:22;332.80;2329.60
70151;DHT22;57517;43.562;19.540;2022-11-15T17:00:52;332.80;2329.60
70151;DHT22;57517;43.562;19.540;2022-11-15T17:03:19;332.80;2329.60